createdAt,value
2023-05-06T00:02:14.727Z,1.60
2023-05-06T00:05:18.871Z,1.65
2023-05-06T00:08:26.511Z,1.88
2023-05-06T00:11:31.261Z,1.63
2023-05-06T00:14:34.860Z,1.80
2023-05-06T00:17:40.846Z,1.50
2023-05-06T00:20:44.548Z,1.33
2023-05-06T00:23:49.393Z,1.40
2023-05-06T00:26:53.020Z,1.60
2023-05-06T00:29:56.355Z,1.80
2023-05-06T00:33:02.769Z,1.80
2023-05-06T00:36:06.574Z,1.52
2023-05-06T00:39:10.852Z,1.55
2023-05-06T00:42:14.434Z,1.80
2023-05-06T00:45:18.054Z,1.58
2023-05-06T00:48:23.587Z,1.65
2023-05-06T00:51:30.937Z,2.00
2023-05-06T00:54:35.950Z,1.70
2023-05-06T00:57:40.371Z,1.85
2023-05-06T01:00:44.591Z,1.55
2023-05-06T01:03:57.061Z,1.65
2023-05-06T01:07:09.417Z,1.65
2023-05-06T01:10:18.706Z,2.30
2023-05-06T01:13:26.859Z,1.65
2023-05-06T01:16:32.579Z,1.65
2023-05-06T01:19:41.904Z,1.35
2023-05-06T01:22:47.016Z,1.80
2023-05-06T01:25:52.279Z,1.88
2023-05-06T01:28:56.035Z,1.73
2023-05-06T01:32:05.692Z,1.50
2023-05-06T01:35:14.107Z,1.67
2023-05-06T01:38:24.898Z,1.73
2023-05-06T01:41:35.782Z,1.85
2023-05-06T01:44:40.770Z,1.85
2023-05-06T01:47:52.726Z,1.90
2023-05-06T01:50:58.451Z,1.80
2023-05-06T01:54:04.419Z,1.75
2023-05-06T01:57:09.689Z,1.55
2023-05-06T02:00:13.700Z,1.90
2023-05-06T02:03:19.094Z,1.75
2023-05-06T02:06:24.044Z,1.85
2023-05-06T02:09:28.559Z,2.13
2023-05-06T02:12:38.438Z,2.03
2023-05-06T02:15:42.700Z,1.90
2023-05-06T02:18:52.471Z,2.20
2023-05-06T02:22:00.420Z,2.05
2023-05-06T02:25:03.913Z,2.20
2023-05-06T02:28:09.216Z,1.77
2023-05-06T02:31:15.360Z,2.05
2023-05-06T02:34:19.547Z,1.75
2023-05-06T02:37:23.458Z,2.05
2023-05-06T02:40:27.102Z,2.22
2023-05-06T02:43:35.908Z,1.77
2023-05-06T02:46:42.304Z,2.08
2023-05-06T02:49:45.716Z,1.58
2023-05-06T02:52:51.058Z,1.88
2023-05-06T02:55:54.911Z,1.70
2023-05-06T02:59:00.123Z,1.52
2023-05-06T03:02:03.712Z,1.95
2023-05-06T03:05:07.882Z,1.75
2023-05-06T03:08:12.253Z,2.28
2023-05-06T03:11:16.935Z,2.30
2023-05-06T03:14:23.168Z,1.90
2023-05-06T03:17:30.212Z,2.10
2023-05-06T03:20:35.108Z,1.85
2023-05-06T03:23:39.384Z,2.72
2023-05-06T03:26:53.522Z,1.92
2023-05-06T03:30:02.501Z,2.30
2023-05-06T03:33:07.799Z,1.85
2023-05-06T03:36:12.937Z,2.50
2023-05-06T03:39:18.216Z,2.13
2023-05-06T03:42:22.990Z,2.20
2023-05-06T03:45:30.501Z,2.00
2023-05-06T03:48:37.235Z,1.85
2023-05-06T03:51:44.802Z,2.35
2023-05-06T03:54:48.644Z,2.13
2023-05-06T03:57:52.965Z,2.17
2023-05-06T04:01:01.479Z,2.38
2023-05-06T04:04:06.460Z,2.00
2023-05-06T04:07:11.340Z,2.08
2023-05-06T04:10:15.248Z,1.77
2023-05-06T04:13:26.190Z,2.10
2023-05-06T04:16:32.497Z,2.33
2023-05-06T04:19:36.024Z,2.08
2023-05-06T04:22:47.040Z,2.60
2023-05-06T04:25:52.028Z,1.77
2023-05-06T04:29:02.029Z,1.98
2023-05-06T04:32:11.850Z,2.20
2023-05-06T04:35:17.288Z,2.42
2023-05-06T04:38:22.180Z,2.10
2023-05-06T04:41:26.831Z,2.30
2023-05-06T04:44:33.864Z,2.33
2023-05-06T04:47:41.500Z,2.25
2023-05-06T04:50:45.955Z,2.25
2023-05-06T04:53:50.081Z,2.45
2023-05-06T04:56:54.682Z,2.50
2023-05-06T04:59:58.420Z,2.08
2023-05-06T05:03:03.593Z,2.22
2023-05-06T05:06:07.816Z,2.10
2023-05-06T05:09:12.137Z,2.50
2023-05-06T05:12:19.437Z,2.17
2023-05-06T05:15:30.176Z,2.08
2023-05-06T05:18:35.655Z,2.47
2023-05-06T05:21:47.478Z,2.78
2023-05-06T05:24:52.607Z,2.53
2023-05-06T05:27:56.580Z,2.13
2023-05-06T05:31:03.725Z,2.38
2023-05-06T05:34:12.729Z,2.30
2023-05-06T05:37:16.942Z,2.35
2023-05-06T05:40:21.009Z,2.35
2023-05-06T05:43:32.181Z,2.70
2023-05-06T05:46:37.751Z,2.42
2023-05-06T05:49:44.067Z,2.20
2023-05-06T05:52:52.039Z,2.85
2023-05-06T05:55:57.258Z,2.42
2023-05-06T05:59:02.724Z,2.28
2023-05-06T06:02:07.092Z,2.40
2023-05-06T06:05:13.191Z,2.08
2023-05-06T06:08:19.549Z,2.95
2023-05-06T06:11:26.813Z,2.10
2023-05-06T06:14:30.481Z,2.40
2023-05-06T06:17:34.501Z,2.10
2023-05-06T06:20:40.748Z,2.50
2023-05-06T06:23:46.240Z,2.20
2023-05-06T06:26:53.579Z,2.47
2023-05-06T06:29:56.976Z,2.47
2023-05-06T06:33:03.003Z,2.47
2023-05-06T06:36:09.463Z,2.20
2023-05-06T06:39:13.228Z,2.80
2023-05-06T06:42:16.751Z,2.45
2023-05-06T06:45:33.082Z,2.17
2023-05-06T06:48:36.677Z,1.98
2023-05-06T06:51:42.336Z,2.50
2023-05-06T06:54:46.200Z,2.42
2023-05-06T06:57:50.136Z,2.25
2023-05-06T07:00:53.536Z,2.22
2023-05-06T07:03:57.751Z,2.65
2023-05-06T07:07:02.840Z,2.22
2023-05-06T07:10:07.183Z,2.60
2023-05-06T07:13:11.691Z,2.47
2023-05-06T07:16:15.978Z,3.15
2023-05-06T07:19:20.327Z,2.30
2023-05-06T07:22:25.312Z,2.70
2023-05-06T07:25:29.001Z,2.20
2023-05-06T07:28:36.995Z,2.72
2023-05-06T07:31:41.555Z,2.42
2023-05-06T07:34:45.141Z,2.42
2023-05-06T07:37:50.149Z,2.92
2023-05-06T07:40:55.701Z,2.45
2023-05-06T07:43:59.649Z,3.08
2023-05-06T07:47:04.100Z,2.55
2023-05-06T07:50:08.302Z,3.00
2023-05-06T07:53:16.035Z,2.72
2023-05-06T07:56:20.615Z,2.83
2023-05-06T07:59:24.406Z,2.80
2023-05-06T08:02:28.337Z,2.90
2023-05-06T08:05:32.040Z,3.22
2023-05-06T08:08:37.275Z,2.50
2023-05-06T08:11:40.645Z,3.00
2023-05-06T08:14:44.430Z,2.75
2023-05-06T08:17:48.023Z,3.30
2023-05-06T08:20:51.818Z,3.03
2023-05-06T08:23:57.922Z,2.67
2023-05-06T08:27:01.423Z,2.65
2023-05-06T08:30:05.564Z,2.50
2023-05-06T08:33:09.158Z,3.30
2023-05-06T08:36:12.678Z,3.08
2023-05-06T08:39:18.255Z,2.78
2023-05-06T08:42:22.323Z,3.38
2023-05-06T08:45:27.968Z,2.85
2023-05-06T08:48:33.930Z,2.75
2023-05-06T08:51:37.872Z,3.33
2023-05-06T08:54:44.948Z,3.45
2023-05-06T08:57:52.417Z,3.40
2023-05-06T09:00:56.608Z,3.22
2023-05-06T09:04:01.249Z,3.13
2023-05-06T09:07:04.770Z,2.60
2023-05-06T09:10:14.922Z,2.38
2023-05-06T09:13:19.643Z,2.47
2023-05-06T09:16:30.111Z,2.80
2023-05-06T09:19:33.699Z,2.53
2023-05-06T09:22:39.764Z,2.88
2023-05-06T09:25:47.829Z,2.42
2023-05-06T09:28:52.711Z,2.75
2023-05-06T09:31:56.770Z,2.20
2023-05-06T09:35:01.663Z,2.50
2023-05-06T09:38:10.438Z,2.33
2023-05-06T09:41:16.797Z,2.65
2023-05-06T09:44:20.680Z,2.63
2023-05-06T09:47:26.907Z,3.08
2023-05-06T09:50:30.851Z,2.42
2023-05-06T09:53:34.974Z,2.38
2023-05-06T09:56:40.598Z,2.58
2023-05-06T09:59:45.475Z,3.25
2023-05-06T10:02:49.265Z,3.25
2023-05-06T10:05:52.910Z,2.60
2023-05-06T10:08:56.667Z,3.03
2023-05-06T10:12:02.453Z,2.60
2023-05-06T10:15:06.681Z,2.38
2023-05-06T10:18:15.741Z,2.67
2023-05-06T10:21:23.174Z,2.53
2023-05-06T10:24:31.631Z,2.95
2023-05-06T10:27:37.572Z,3.58
2023-05-06T10:30:42.165Z,3.58
2023-05-06T10:33:47.891Z,2.78
2023-05-06T10:36:52.547Z,3.10
2023-05-06T10:39:56.513Z,3.10
2023-05-06T10:43:15.333Z,2.80
2023-05-06T10:46:22.767Z,2.67
2023-05-06T10:49:26.711Z,3.50
2023-05-06T10:52:45.486Z,3.28
2023-05-06T10:55:50.105Z,2.78
2023-05-06T10:58:55.814Z,3.28
2023-05-06T11:02:10.887Z,3.35
2023-05-06T11:05:14.848Z,2.90
2023-05-06T11:08:23.615Z,3.20
2023-05-06T11:11:45.891Z,2.95
2023-05-06T11:14:50.933Z,2.88
2023-05-06T11:17:56.766Z,3.00
2023-05-06T11:21:15.312Z,3.05
2023-05-06T11:24:24.707Z,3.00
2023-05-06T11:27:29.407Z,3.25
2023-05-06T11:30:33.163Z,3.10
2023-05-06T11:33:38.625Z,3.47
2023-05-06T11:36:49.252Z,3.78
2023-05-06T11:39:52.784Z,3.45
2023-05-06T11:42:58.166Z,3.70
2023-05-06T11:46:33.070Z,3.65
2023-05-06T11:54:10.010Z,3.03
2023-05-06T11:57:16.861Z,2.85
2023-05-06T12:00:23.050Z,3.05
2023-05-06T12:03:27.786Z,3.10
2023-05-06T12:06:37.710Z,2.60
2023-05-06T12:09:41.973Z,2.90
2023-05-06T12:12:45.890Z,2.80
2023-05-06T12:15:50.284Z,3.08
2023-05-06T12:18:54.757Z,2.75
2023-05-06T12:22:15.823Z,3.15
2023-05-06T12:25:21.828Z,3.15
2023-05-06T12:28:26.725Z,3.10
2023-05-06T12:31:32.004Z,2.92
2023-05-06T12:34:39.213Z,3.67
2023-05-06T12:37:45.358Z,3.38
2023-05-06T12:40:58.247Z,3.17
2023-05-06T12:44:02.488Z,3.03
2023-05-06T12:47:10.172Z,2.90
2023-05-06T12:50:14.122Z,2.97
2023-05-06T12:53:32.841Z,2.88
2023-05-06T12:56:36.211Z,3.38
2023-05-06T12:59:42.763Z,3.20
2023-05-06T13:02:46.594Z,2.35
2023-05-06T13:05:51.806Z,3.03
2023-05-06T13:08:59.024Z,3.00
2023-05-06T13:12:04.900Z,2.70
2023-05-06T13:15:10.152Z,2.80
2023-05-06T13:18:23.540Z,2.92
2023-05-06T13:21:28.667Z,2.83
2023-05-06T13:24:33.823Z,3.20
2023-05-06T13:27:37.665Z,3.35
2023-05-06T13:30:42.047Z,3.05
2023-05-06T13:33:48.720Z,3.10
2023-05-06T13:36:54.468Z,3.10
2023-05-06T13:40:03.655Z,2.92
2023-05-06T13:43:07.479Z,3.00
2023-05-06T13:46:12.452Z,2.72
2023-05-06T13:49:16.437Z,3.08
2023-05-06T13:52:20.575Z,2.72
2023-05-06T13:55:26.468Z,3.47
2023-05-06T13:58:29.853Z,2.65
2023-05-06T14:01:34.082Z,3.55
2023-05-06T14:04:37.868Z,3.38
2023-05-06T14:07:42.919Z,3.65
2023-05-06T14:10:48.461Z,3.50
2023-05-06T14:14:03.598Z,3.75
2023-05-06T14:17:25.514Z,3.90
2023-05-06T14:20:31.977Z,3.90
2023-05-06T14:23:38.127Z,4.75
2023-05-06T14:26:46.106Z,4.38
2023-05-06T14:29:50.096Z,4.13
2023-05-06T14:32:53.848Z,4.75
2023-05-06T14:36:00.720Z,4.00
2023-05-06T14:39:04.819Z,4.47
2023-05-06T14:42:12.230Z,4.05
2023-05-06T14:45:16.162Z,4.55
2023-05-06T14:48:23.662Z,4.90
2023-05-06T14:51:29.446Z,4.72
2023-05-06T14:54:35.475Z,5.10
2023-05-06T14:57:41.214Z,5.47
2023-05-06T15:00:48.500Z,5.28
2023-05-06T15:03:53.380Z,5.28
2023-05-06T15:07:01.162Z,4.65
2023-05-06T15:10:09.115Z,4.78
2023-05-06T15:13:15.591Z,4.75
2023-05-06T15:16:21.148Z,4.72
2023-05-06T15:19:24.838Z,4.63
2023-05-06T15:22:28.675Z,5.57
2023-05-06T15:25:37.108Z,4.20
2023-05-06T15:28:43.089Z,5.13
2023-05-06T15:31:48.193Z,4.85
2023-05-06T15:34:52.004Z,4.57
2023-05-06T15:37:58.874Z,4.82
2023-05-06T15:41:02.885Z,5.15
2023-05-06T15:44:12.158Z,5.30
2023-05-06T15:47:16.702Z,5.05
2023-05-06T15:50:32.886Z,4.78
2023-05-06T15:54:57.519Z,4.82
2023-05-06T15:57:40.864Z,4.88
2023-05-06T16:00:46.642Z,5.05
2023-05-06T16:03:50.465Z,5.45
2023-05-06T16:06:56.113Z,5.72
2023-05-06T16:10:00.810Z,10.00
2023-05-06T16:13:04.948Z,6.53
2023-05-06T16:16:10.934Z,5.78
2023-05-06T16:19:39.599Z,4.97
2023-05-06T16:22:44.197Z,5.28
2023-05-06T16:25:50.005Z,5.40
2023-05-06T16:28:57.117Z,5.45
2023-05-06T16:32:02.499Z,6.10
2023-05-06T16:35:08.658Z,5.40
2023-05-06T16:38:12.286Z,4.97
2023-05-06T16:41:16.101Z,5.63
2023-05-06T16:44:20.316Z,9.02
2023-05-06T16:47:25.670Z,6.95
2023-05-06T16:50:29.168Z,7.32
2023-05-06T16:53:44.735Z,5.88
2023-05-06T16:56:52.939Z,6.57
2023-05-06T16:59:57.121Z,5.97
2023-05-06T17:03:03.799Z,6.47
2023-05-06T17:06:07.979Z,5.85
2023-05-06T17:09:12.336Z,5.47
2023-05-06T17:12:16.417Z,5.13
2023-05-06T17:15:20.631Z,5.53
2023-05-06T17:18:25.426Z,5.07
2023-05-06T17:21:31.887Z,4.45
2023-05-06T17:24:36.070Z,4.50
2023-05-06T17:27:39.602Z,5.70
2023-05-06T17:30:43.087Z,4.47
2023-05-06T17:33:48.516Z,5.40
2023-05-06T17:36:54.743Z,5.13
2023-05-06T17:39:59.785Z,5.22
2023-05-06T17:43:03.549Z,4.60
2023-05-06T17:46:09.464Z,4.38
2023-05-06T17:49:14.642Z,4.47
2023-05-06T17:52:19.292Z,4.82
2023-05-06T17:55:24.254Z,5.03
2023-05-06T17:58:28.709Z,4.28
2023-05-06T18:01:38.634Z,5.00
2023-05-06T18:04:54.601Z,4.68
2023-05-06T18:07:58.749Z,4.28
2023-05-06T18:11:02.498Z,4.30
2023-05-06T18:14:10.409Z,4.90
2023-05-06T18:17:14.430Z,4.60
2023-05-06T18:20:23.850Z,4.80
2023-05-06T18:23:29.679Z,4.70
2023-05-06T18:26:44.862Z,4.72
2023-05-06T18:29:49.221Z,5.80
2023-05-06T18:32:56.736Z,5.53
2023-05-06T18:36:01.946Z,5.53
2023-05-06T18:39:08.887Z,6.28
2023-05-06T18:42:17.015Z,5.70
2023-05-06T18:45:20.586Z,5.80
2023-05-06T18:48:31.035Z,6.07
2023-05-06T18:51:37.732Z,6.53
2023-05-06T18:54:46.295Z,5.85
2023-05-06T18:57:50.191Z,5.88
2023-05-06T19:00:55.754Z,5.18
2023-05-06T19:04:03.708Z,5.57
2023-05-06T19:07:10.125Z,5.22
2023-05-06T19:10:19.678Z,5.28
2023-05-06T19:13:23.939Z,5.10
2023-05-06T19:16:28.463Z,5.15
2023-05-06T19:19:32.842Z,5.00
2023-05-06T19:22:38.264Z,5.60
2023-05-06T19:25:42.012Z,4.70
2023-05-06T19:28:45.866Z,5.22
2023-05-06T19:31:51.263Z,5.15
2023-05-06T19:34:55.413Z,5.20
2023-05-06T19:38:04.644Z,5.50
2023-05-06T19:41:10.575Z,4.93
2023-05-06T19:44:15.507Z,5.03
2023-05-06T19:47:20.996Z,5.50
2023-05-06T19:50:29.705Z,4.93
2023-05-06T19:53:38.769Z,4.65
2023-05-06T19:56:43.293Z,4.95
2023-05-06T19:59:48.465Z,5.03
2023-05-06T20:02:53.418Z,5.25
2023-05-06T20:05:57.289Z,4.30
2023-05-06T20:09:04.212Z,6.10
2023-05-06T20:12:09.625Z,6.18
2023-05-06T20:15:15.858Z,5.50
2023-05-06T20:18:22.908Z,5.47
2023-05-06T20:21:27.232Z,4.90
2023-05-06T20:24:53.273Z,4.53
2023-05-06T20:28:27.533Z,4.18
2023-05-06T20:32:06.397Z,4.40
2023-05-06T20:35:19.879Z,4.70
2023-05-06T20:38:27.450Z,4.68
2023-05-06T20:41:33.230Z,4.47
2023-05-06T20:44:38.897Z,4.05
2023-05-06T20:47:42.724Z,4.40
2023-05-06T20:50:46.630Z,4.25
2023-05-06T20:53:52.340Z,4.38
2023-05-06T20:57:00.223Z,4.25
2023-05-06T21:00:07.547Z,4.47
2023-05-06T21:03:11.670Z,4.20
2023-05-06T21:06:16.714Z,3.78
2023-05-06T21:09:23.490Z,4.13
2023-05-06T21:12:34.022Z,3.90
2023-05-06T21:15:39.364Z,4.07
2023-05-06T21:18:43.180Z,3.75
2023-05-06T21:21:50.189Z,4.40
2023-05-06T21:24:53.667Z,3.92
2023-05-06T21:27:57.746Z,3.78
2023-05-06T21:31:08.506Z,3.35
2023-05-06T21:34:12.867Z,3.40
2023-05-06T21:37:17.478Z,3.65
2023-05-06T21:40:20.992Z,3.20
2023-05-06T21:43:24.950Z,3.38
2023-05-06T21:46:31.724Z,3.45
2023-05-06T21:49:37.261Z,3.85
2023-05-06T21:52:41.734Z,3.53
2023-05-06T21:55:45.948Z,3.70
2023-05-06T21:58:54.289Z,3.63
2023-05-06T22:02:00.787Z,3.58
2023-05-06T22:05:04.357Z,3.47
2023-05-06T22:08:08.488Z,3.42
2023-05-06T22:11:13.223Z,3.92
2023-05-06T22:14:21.946Z,3.63
2023-05-06T22:17:32.586Z,3.65
2023-05-06T22:20:36.902Z,4.03
2023-05-06T22:23:42.036Z,3.63
2023-05-06T22:26:49.298Z,3.47
2023-05-06T22:30:00.346Z,3.20
2023-05-06T22:33:14.968Z,3.30
2023-05-06T22:36:19.605Z,3.40
2023-05-06T22:39:25.845Z,3.63
2023-05-06T22:42:29.866Z,4.28
2023-05-06T22:45:33.911Z,4.07
2023-05-06T22:48:40.374Z,3.17
2023-05-06T22:51:44.400Z,2.00
2023-05-06T22:54:48.254Z,4.15
2023-05-06T22:57:53.989Z,3.45
2023-05-06T23:01:01.445Z,3.78
2023-05-06T23:04:07.737Z,3.67
2023-05-06T23:07:14.616Z,4.28
2023-05-06T23:10:18.102Z,3.90
2023-05-06T23:13:22.002Z,3.60
2023-05-06T23:16:26.579Z,3.40
2023-05-06T23:19:32.756Z,2.95
2023-05-06T23:22:36.394Z,3.88
2023-05-06T23:25:40.774Z,3.83
2023-05-06T23:28:44.401Z,4.05
2023-05-06T23:31:51.266Z,3.50
2023-05-06T23:34:56.291Z,3.63
2023-05-06T23:38:00.465Z,3.45
2023-05-06T23:41:05.261Z,3.83
2023-05-06T23:44:08.721Z,3.83
2023-05-06T23:47:12.353Z,3.17
2023-05-06T23:50:18.144Z,3.65
2023-05-06T23:53:24.406Z,4.10
2023-05-06T23:56:58.698Z,3.90
